Time;durP1;ratioP1;P1;durP2;ratioP2;P2;SDS_P1;SDS_P2;PMS_P1;PMS_P2;Temp;Humidity;BMP_temperature;BMP_pressure;BME280_temperature;BME280_humidity;BME280_pressure;Samples;Min_cycle;Max_cycle;Signal;HPM_P1;HPM_P2
2023/07/31 00:00:12;;;;;;;15.90;6.78;;;17.80;99.90;;;17.37;100.00;101399.97;4179793;28;20055;-76
2023/07/31 00:02:13;;;;;;;15.18;5.63;;;17.80;99.90;;;17.36;100.00;101392.13;4174222;28;20044;-76
2023/07/31 00:04:13;;;;;;;13.00;5.70;;;17.80;99.90;;;17.30;100.00;101383.03;4181370;28;20029;-76
2023/07/31 00:06:14;;;;;;;12.73;5.75;;;17.80;99.90;;;17.27;100.00;101372.72;4176016;28;20523;-76
2023/07/31 00:08:16;;;;;;;18.15;5.93;;;17.80;99.90;;;17.29;100.00;101383.22;4161780;28;20041;-76
2023/07/31 00:10:16;;;;;;;22.77;6.57;;;17.80;99.90;;;17.25;100.00;101372.09;4174320;28;20385;-76
2023/07/31 00:12:17;;;;;;;16.90;6.45;;;17.70;99.90;;;17.22;100.00;101375.13;4160259;28;20029;-76
2023/07/31 00:14:18;;;;;;;19.23;5.70;;;17.70;99.90;;;17.22;100.00;101376.97;4173949;28;20030;-76
2023/07/31 00:16:19;;;;;;;12.90;5.75;;;17.70;99.90;;;17.25;100.00;101384.59;4142419;28;20030;-76
2023/07/31 00:18:20;;;;;;;14.98;5.90;;;17.70;99.90;;;17.24;100.00;101378.44;4177972;28;20447;-76
2023/07/31 00:20:21;;;;;;;16.00;5.68;;;17.70;99.90;;;17.21;100.00;101377.97;4170332;28;20056;-76
2023/07/31 00:22:22;;;;;;;15.85;5.30;;;17.70;99.90;;;17.17;100.00;101374.84;4162765;28;20036;-76
2023/07/31 00:24:23;;;;;;;18.55;6.47;;;17.60;99.90;;;17.19;100.00;101380.81;4161300;28;20021;-76
2023/07/31 00:26:24;;;;;;;14.95;5.75;;;17.60;99.90;;;17.12;100.00;101375.38;4168871;28;20043;-76
2023/07/31 00:28:24;;;;;;;15.07;5.88;;;17.60;99.90;;;17.11;100.00;101370.25;4161733;28;20041;-76
2023/07/31 00:30:26;;;;;;;15.15;5.80;;;17.60;99.90;;;17.14;100.00;101375.22;4157806;28;20030;-76
2023/07/31 00:32:27;;;;;;;15.48;5.60;;;17.60;99.90;;;17.10;100.00;101337.44;4173895;28;20079;-76
2023/07/31 00:34:28;;;;;;;17.60;6.28;;;17.60;99.90;;;17.10;100.00;101341.94;4151312;28;20018;-76
2023/07/31 00:36:29;;;;;;;16.83;5.93;;;17.60;99.90;;;17.07;100.00;101335.13;4168801;28;20026;-76
2023/07/31 00:38:30;;;;;;;15.52;5.38;;;17.60;99.90;;;17.05;100.00;101337.13;4155149;28;20029;-76
2023/07/31 00:40:36;;;;;;;15.80;5.13;;;17.60;99.90;;;17.03;100.00;101346.34;4168662;28;20034;-76
2023/07/31 00:42:37;;;;;;;16.48;5.57;;;17.50;99.90;;;17.01;100.00;101345.69;4155796;28;20026;-76
2023/07/31 00:44:38;;;;;;;15.93;5.60;;;17.50;99.90;;;16.99;100.00;101343.19;4155755;28;20067;-76
2023/07/31 00:46:39;;;;;;;13.65;5.07;;;17.50;99.90;;;17.02;100.00;101336.69;4175488;28;20029;-76
2023/07/31 00:48:40;;;;;;;11.05;5.32;;;17.50;99.90;;;17.06;100.00;101343.31;4181116;28;20064;-76
2023/07/31 00:50:41;;;;;;;14.02;5.43;;;17.50;99.90;;;17.10;100.00;101339.25;4150963;28;20038;-76
2023/07/31 00:52:42;;;;;;;12.85;5.95;;;17.60;99.90;;;17.15;100.00;101340.38;4173428;28;20043;-76
2023/07/31 00:54:43;;;;;;;13.13;6.68;;;17.60;99.90;;;17.21;100.00;101345.97;4158238;28;20037;-76
2023/07/31 00:56:48;;;;;;;14.27;5.53;;;17.70;99.90;;;17.27;100.00;101350.56;4177685;28;20028;-76
2023/07/31 00:58:49;;;;;;;14.77;5.25;;;17.70;99.90;;;17.25;100.00;101342.75;4163643;28;20022;-76
2023/07/31 01:00:50;;;;;;;18.30;5.35;;;17.80;99.90;;;17.28;100.00;101342.38;4137119;28;20080;-76
2023/07/31 01:02:51;;;;;;;12.45;5.50;;;17.80;99.90;;;17.36;100.00;101344.13;4178032;28;20029;-76
2023/07/31 01:04:53;;;;;;;12.98;5.18;;;17.80;99.90;;;17.35;100.00;101326.47;4171504;28;20090;-76
2023/07/31 01:07:13;;;;;;;13.55;5.30;;;17.90;99.90;;;17.40;100.00;101340.91;4146540;28;20089;-76
2023/07/31 01:09:29;;;;;;;15.43;5.97;;;17.90;99.90;;;17.39;100.00;101330.41;4172540;28;20025;-76
2023/07/31 01:11:48;;;;;;;16.20;5.95;;;17.80;99.90;;;17.38;100.00;101339.44;4177101;28;20029;-76
2023/07/31 01:13:49;;;;;;;15.77;5.45;;;17.90;99.90;;;17.39;100.00;101325.91;4156023;28;20033;-76
2023/07/31 01:15:50;;;;;;;13.48;6.63;;;17.90;99.90;;;17.43;100.00;101323.69;4162059;28;20017;-76
2023/07/31 01:17:51;;;;;;;15.70;5.53;;;17.90;99.90;;;17.47;100.00;101322.31;4171388;28;20073;-76
2023/07/31 01:19:53;;;;;;;15.43;4.70;;;17.90;99.90;;;17.48;100.00;101326.63;4174682;28;20021;-76
2023/07/31 01:21:56;;;;;;;18.05;5.78;;;18.00;99.90;;;17.47;100.00;101331.13;4157609;28;20037;-76
2023/07/31 01:24:09;;;;;;;13.05;6.20;;;18.00;99.90;;;17.49;100.00;101323.78;4174564;28;20044;-76
2023/07/31 01:26:18;;;;;;;22.27;5.72;;;18.00;99.90;;;17.55;100.00;101328.41;4179275;28;20511;-76
2023/07/31 01:28:52;;;;;;;18.00;6.28;;;18.00;99.90;;;17.60;100.00;101326.00;4153017;28;20037;-76
2023/07/31 01:30:59;;;;;;;11.70;5.15;;;18.10;99.90;;;17.59;100.00;101321.66;4171875;28;20033;-76
2023/07/31 01:33:03;;;;;;;14.20;5.65;;;18.10;99.90;;;17.62;100.00;101321.28;4165933;28;20026;-76
2023/07/31 01:35:05;;;;;;;12.30;5.90;;;18.10;99.90;;;17.58;100.00;101301.38;4159952;28;20176;-76
2023/07/31 01:37:06;;;;;;;15.00;5.90;;;18.10;99.90;;;17.65;100.00;101318.25;4167526;28;20036;-76
2023/07/31 01:39:07;;;;;;;13.43;5.68;;;18.10;99.90;;;17.65;100.00;101302.25;4185694;28;20484;-76
2023/07/31 01:41:08;;;;;;;14.13;5.72;;;18.10;99.90;;;17.66;100.00;101303.06;4153734;28;20034;-76
2023/07/31 01:43:09;;;;;;;12.00;5.72;;;18.10;99.90;;;17.68;100.00;101304.53;4155745;28;20052;-76
2023/07/31 01:45:10;;;;;;;13.00;5.15;;;18.10;99.90;;;17.67;100.00;101308.25;4170249;28;20424;-76
2023/07/31 01:47:11;;;;;;;11.70;5.85;;;18.10;99.90;;;17.66;100.00;101297.75;4184429;28;20036;-76
2023/07/31 01:49:12;;;;;;;11.95;5.47;;;18.10;99.90;;;17.69;100.00;101292.84;4156166;28;20026;-76
2023/07/31 01:51:13;;;;;;;10.75;5.43;;;18.20;99.90;;;17.69;100.00;101282.19;4161512;28;20057;-76
2023/07/31 01:53:14;;;;;;;16.08;5.90;;;18.20;99.90;;;17.67;100.00;101286.91;4181606;28;20029;-76
2023/07/31 01:55:15;;;;;;;15.23;6.32;;;18.20;99.90;;;17.67;100.00;101284.22;4155254;28;20026;-76
2023/07/31 01:57:16;;;;;;;11.98;5.05;;;18.20;99.90;;;17.69;100.00;101286.69;4180528;28;20043;-76
2023/07/31 01:59:17;;;;;;;11.15;5.07;;;18.20;99.90;;;17.67;100.00;101288.72;4164504;28;20018;-76
2023/07/31 02:01:18;;;;;;;12.93;4.47;;;18.20;99.90;;;17.64;100.00;101289.94;4177154;28;20091;-76
2023/07/31 02:03:18;;;;;;;14.45;5.03;;;18.10;99.90;;;17.61;100.00;101281.47;4166694;28;20037;-76
2023/07/31 02:05:19;;;;;;;12.13;5.53;;;18.10;99.90;;;17.52;100.00;101280.75;4159915;28;20036;-76
2023/07/31 02:07:20;;;;;;;12.55;5.03;;;18.00;99.90;;;17.42;100.00;101277.53;4159982;28;20079;-76
2023/07/31 02:09:21;;;;;;;13.10;4.78;;;18.00;99.90;;;17.31;100.00;101277.19;4183480;28;20396;-76
2023/07/31 02:11:22;;;;;;;18.30;6.10;;;17.90;99.90;;;17.28;100.00;101272.22;4156684;28;20030;-76
2023/07/31 02:13:23;;;;;;;13.45;5.55;;;17.90;99.90;;;17.31;100.00;101275.34;4161530;28;20516;-76
2023/07/31 02:15:23;;;;;;;14.55;5.60;;;17.80;99.90;;;17.30;100.00;101280.84;4171890;28;20104;-76
2023/07/31 02:17:24;;;;;;;15.10;5.32;;;17.80;99.90;;;17.26;100.00;101268.94;4186904;28;20032;-76
2023/07/31 02:19:25;;;;;;;15.43;5.07;;;17.80;99.90;;;17.23;100.00;101256.81;4174443;28;20031;-76
2023/07/31 02:21:26;;;;;;;13.00;4.72;;;17.80;99.90;;;17.23;100.00;101259.47;4166209;28;20559;-76
2023/07/31 02:23:27;;;;;;;11.73;4.53;;;17.80;99.90;;;17.17;100.00;101246.88;4177866;28;20030;-76
2023/07/31 02:25:28;;;;;;;15.23;5.88;;;17.70;99.90;;;17.14;100.00;101245.38;4175492;28;20037;-76
2023/07/31 02:27:29;;;;;;;11.93;4.97;;;17.70;99.90;;;17.10;100.00;101232.63;4174836;28;20079;-76
2023/07/31 02:29:30;;;;;;;14.90;4.72;;;17.70;99.90;;;17.06;100.00;101234.00;4154187;28;20528;-76
2023/07/31 02:31:30;;;;;;;14.32;4.95;;;17.60;99.90;;;16.99;100.00;101236.59;4163671;28;20030;-76
2023/07/31 02:33:31;;;;;;;11.38;4.50;;;17.60;99.90;;;16.92;100.00;101229.53;4156959;28;20030;-76
2023/07/31 02:35:32;;;;;;;12.52;5.43;;;17.50;99.90;;;16.86;100.00;101224.94;4153912;28;20030;-76
2023/07/31 02:37:34;;;;;;;13.25;4.93;;;17.40;99.90;;;16.81;100.00;101217.53;4174054;28;20028;-76
2023/07/31 02:39:35;;;;;;;16.95;5.95;;;17.30;99.90;;;16.80;100.00;101215.84;4158018;28;20087;-76
2023/07/31 02:41:35;;;;;;;12.85;4.53;;;17.30;99.90;;;16.75;100.00;101215.59;4176964;28;20033;-76
2023/07/31 02:43:36;;;;;;;10.95;4.45;;;17.30;99.90;;;16.72;100.00;101210.63;4180650;28;20451;-76
2023/07/31 02:45:37;;;;;;;14.73;5.53;;;17.30;99.90;;;16.68;100.00;101206.66;4153460;28;20053;-76
2023/07/31 02:47:38;;;;;;;12.27;5.15;;;17.20;99.90;;;16.70;100.00;101217.13;4157714;28;20068;-76
2023/07/31 02:49:39;;;;;;;21.70;6.05;;;17.20;99.90;;;16.69;100.00;101202.19;4177950;28;20025;-76
2023/07/31 02:51:39;;;;;;;13.55;5.28;;;17.20;99.90;;;16.70;100.00;101209.13;4170151;28;20022;-76
2023/07/31 02:53:40;;;;;;;18.63;5.97;;;17.20;99.90;;;16.81;100.00;101211.34;4165364;28;20021;-76
2023/07/31 02:55:41;;;;;;;12.25;4.65;;;17.30;99.90;;;16.86;100.00;101216.94;4179186;28;20028;-76
2023/07/31 02:57:42;;;;;;;11.95;5.22;;;17.30;99.90;;;16.96;100.00;101212.16;4174913;28;20033;-76
2023/07/31 02:59:43;;;;;;;15.75;6.75;;;17.40;99.90;;;16.98;100.00;101210.13;4179904;28;20048;-76
2023/07/31 03:01:44;;;;;;;16.65;5.57;;;17.50;99.90;;;17.03;100.00;101211.22;4172247;28;20037;-76
2023/07/31 03:03:45;;;;;;;12.68;5.00;;;17.50;99.90;;;17.09;100.00;101212.31;4179713;28;20033;-76
2023/07/31 03:05:45;;;;;;;16.60;6.05;;;17.50;99.90;;;17.17;100.00;101209.56;4156004;28;20567;-76
2023/07/31 03:07:46;;;;;;;12.45;5.22;;;17.60;99.90;;;17.21;100.00;101202.81;4175550;28;20443;-76
2023/07/31 03:09:47;;;;;;;14.10;5.30;;;17.70;99.90;;;17.22;100.00;101198.31;4173780;28;20030;-76
2023/07/31 03:11:48;;;;;;;15.15;5.05;;;17.70;99.90;;;17.32;100.00;101209.53;4156074;28;20025;-76
2023/07/31 03:13:49;;;;;;;11.40;4.57;;;17.80;99.90;;;17.37;100.00;101199.94;4175055;28;20044;-76
2023/07/31 03:15:50;;;;;;;12.05;4.65;;;17.80;99.90;;;17.38;100.00;101201.56;4174695;28;20021;-76
2023/07/31 03:17:51;;;;;;;13.32;5.22;;;17.80;99.90;;;17.42;100.00;101204.69;4161971;28;20025;-76
2023/07/31 03:19:52;;;;;;;10.80;5.05;;;17.90;99.90;;;17.42;100.00;101191.34;4152347;28;20021;-76
2023/07/31 03:21:53;;;;;;;15.85;5.13;;;17.90;99.90;;;17.44;100.00;101192.81;4154861;28;20021;-76
2023/07/31 03:23:53;;;;;;;10.90;4.70;;;17.90;99.90;;;17.44;100.00;101186.69;4176485;28;20405;-76
2023/07/31 03:26:00;;;;;;;10.13;4.38;;;18.00;99.90;;;17.46;100.00;101187.31;4170718;28;20033;-76
2023/07/31 03:28:01;;;;;;;12.98;5.50;;;17.90;99.90;;;17.49;100.00;101189.59;4155015;28;20018;-76
2023/07/31 03:30:03;;;;;;;11.57;4.93;;;18.00;99.90;;;17.49;100.00;101185.09;4174189;28;20044;-76
2023/07/31 03:32:05;;;;;;;13.00;5.13;;;18.00;99.90;;;17.52;100.00;101179.38;4162153;28;20116;-76
2023/07/31 03:34:06;;;;;;;14.20;4.40;;;18.00;99.90;;;17.53;100.00;101189.00;4167041;28;20029;-76
2023/07/31 03:36:07;;;;;;;11.02;4.95;;;18.00;99.90;;;17.56;100.00;101185.19;4178619;28;20430;-76
2023/07/31 03:38:08;;;;;;;15.73;5.65;;;18.00;99.90;;;17.57;100.00;101187.66;4165042;28;20021;-76
2023/07/31 03:40:10;;;;;;;14.93;5.10;;;18.00;99.90;;;17.59;100.00;101193.63;4183385;28;20067;-76
2023/07/31 03:42:11;;;;;;;10.60;4.78;;;18.10;99.90;;;17.57;100.00;101187.66;4183548;28;20420;-76
2023/07/31 03:44:12;;;;;;;14.45;4.95;;;18.10;99.90;;;17.60;100.00;101183.78;4165586;28;20026;-76
2023/07/31 03:46:13;;;;;;;12.07;5.32;;;18.10;99.90;;;17.59;100.00;101182.94;4183243;28;20040;-76
2023/07/31 03:48:16;;;;;;;13.18;5.15;;;18.10;99.90;;;17.63;100.00;101188.72;4181448;28;20442;-76
2023/07/31 03:50:17;;;;;;;13.90;5.05;;;18.10;99.90;;;17.63;100.00;101178.88;4181772;28;20477;-76
2023/07/31 03:52:17;;;;;;;12.00;4.10;;;18.10;99.90;;;17.63;100.00;101176.22;4179418;28;20052;-76
2023/07/31 03:54:18;;;;;;;13.32;4.32;;;18.10;99.90;;;17.69;100.00;101175.44;4165733;28;20374;-76
2023/07/31 03:56:19;;;;;;;14.23;5.57;;;18.10;99.90;;;17.70;100.00;101176.28;4166235;28;20060;-76
2023/07/31 03:58:20;;;;;;;11.90;4.40;;;18.20;99.90;;;17.73;100.00;101172.41;4184629;28;20024;-76
2023/07/31 04:00:22;;;;;;;17.13;4.97;;;18.20;99.90;;;17.67;100.00;101158.81;4182753;28;20033;-76
2023/07/31 04:02:23;;;;;;;13.18;4.70;;;18.20;99.90;;;17.74;100.00;101160.72;4163504;28;20030;-76
2023/07/31 04:04:23;;;;;;;10.60;4.07;;;18.20;99.90;;;17.71;100.00;101153.09;4164797;28;20060;-75
2023/07/31 04:06:24;;;;;;;10.35;4.28;;;18.20;99.90;;;17.76;100.00;101158.69;4165619;28;20045;-76
2023/07/31 04:08:25;;;;;;;13.23;4.85;;;18.20;99.90;;;17.76;100.00;101148.00;4165131;28;20033;-76
2023/07/31 04:10:26;;;;;;;18.90;5.55;;;18.30;99.90;;;17.72;100.00;101142.22;4184637;28;20028;-76
2023/07/31 04:12:27;;;;;;;14.60;4.88;;;18.30;99.90;;;17.73;100.00;101149.22;4163445;28;20033;-76
2023/07/31 04:14:28;;;;;;;10.05;4.85;;;18.30;99.90;;;17.71;100.00;101132.59;4181679;28;20024;-76
2023/07/31 04:16:28;;;;;;;16.55;6.45;;;18.20;99.90;;;17.71;100.00;101140.59;4178867;28;20024;-76
2023/07/31 04:18:30;;;;;;;10.77;5.05;;;18.20;99.90;;;17.71;100.00;101139.75;4164981;28;20032;-76
2023/07/31 04:20:31;;;;;;;15.75;4.68;;;18.30;99.90;;;17.75;100.00;101136.50;4166272;28;20037;-76
2023/07/31 04:22:32;;;;;;;15.85;5.72;;;18.30;99.90;;;17.78;100.00;101141.44;4184347;28;20024;-76
2023/07/31 04:24:33;;;;;;;12.95;4.47;;;18.30;99.90;;;17.71;100.00;101126.41;4182864;28;20054;-76
2023/07/31 04:26:34;;;;;;;12.05;5.20;;;18.30;99.90;;;17.74;100.00;101134.84;4161870;28;20092;-76
2023/07/31 04:28:35;;;;;;;22.23;5.65;;;18.30;99.90;;;17.75;100.00;101127.66;4181670;28;20547;-76
2023/07/31 04:30:36;;;;;;;11.20;5.82;;;18.30;99.90;;;17.73;100.00;101124.38;4182846;28;20021;-76
2023/07/31 04:32:37;;;;;;;12.63;5.43;;;18.30;99.90;;;17.71;100.00;101129.91;4164596;28;20025;-76
2023/07/31 04:34:38;;;;;;;9.82;4.63;;;18.30;99.90;;;17.76;100.00;101132.00;4166780;28;20061;-76
2023/07/31 04:36:38;;;;;;;16.48;5.38;;;18.30;99.90;;;17.73;100.00;101137.72;4180794;28;20025;-76
2023/07/31 04:38:40;;;;;;;8.98;5.13;;;18.30;99.90;;;17.71;100.00;101134.41;4181314;28;20017;-76
2023/07/31 04:40:41;;;;;;;12.82;4.70;;;18.20;99.90;;;17.71;100.00;101124.56;4181220;28;20043;-76
2023/07/31 04:42:42;;;;;;;9.90;4.35;;;18.20;99.90;;;17.70;100.00;101133.59;4165387;28;20021;-76
2023/07/31 04:44:43;;;;;;;13.32;5.05;;;18.20;99.90;;;17.66;100.00;101130.47;4165931;28;20484;-76
2023/07/31 04:46:44;;;;;;;9.55;4.97;;;18.20;99.90;;;17.68;100.00;101127.63;4184302;28;20435;-76
2023/07/31 04:48:45;;;;;;;12.00;5.03;;;18.20;99.90;;;17.66;100.00;101130.47;4184336;28;20025;-76
2023/07/31 04:50:45;;;;;;;11.07;4.88;;;18.20;99.90;;;17.65;100.00;101136.81;4160427;28;20033;-76
2023/07/31 04:52:46;;;;;;;9.18;4.82;;;18.20;99.90;;;17.67;100.00;101134.81;4182032;28;20485;-76
2023/07/31 04:54:47;;;;;;;15.35;4.90;;;18.20;99.90;;;17.65;100.00;101128.81;4164685;28;20527;-76
2023/07/31 04:56:48;;;;;;;13.30;4.25;;;18.20;99.90;;;17.71;100.00;101131.75;4165144;28;20028;-76
2023/07/31 04:58:49;;;;;;;14.25;4.45;;;18.20;99.90;;;17.76;100.00;101137.31;4165265;28;20018;-76
2023/07/31 05:00:50;;;;;;;12.07;5.10;;;18.30;99.90;;;17.79;100.00;101131.59;4180536;28;20025;-76
2023/07/31 05:02:50;;;;;;;12.70;4.40;;;18.30;99.90;;;17.81;100.00;101138.38;4182230;28;20032;-76
2023/07/31 05:04:51;;;;;;;13.40;4.53;;;18.30;99.90;;;17.82;100.00;101132.03;4184964;28;20615;-76
2023/07/31 05:06:52;;;;;;;11.57;4.55;;;18.30;99.90;;;17.85;100.00;101134.34;4166140;28;20028;-76
2023/07/31 05:08:53;;;;;;;9.00;4.00;;;18.40;99.90;;;17.89;100.00;101135.56;4169112;28;20036;-76
2023/07/31 05:10:54;;;;;;;11.48;4.18;;;18.40;99.90;;;17.93;100.00;101138.69;4187715;28;20025;-76
2023/07/31 05:12:55;;;;;;;14.93;4.63;;;18.40;99.90;;;17.94;100.00;101143.84;4165933;28;20397;-76
2023/07/31 05:14:56;;;;;;;15.80;4.38;;;18.40;99.90;;;17.96;100.00;101127.63;4182371;28;20029;-76
2023/07/31 05:16:57;;;;;;;16.13;4.95;;;18.50;99.90;;;17.95;100.00;101128.66;4166178;28;20084;-76
2023/07/31 05:18:58;;;;;;;8.60;4.18;;;18.50;99.90;;;17.98;100.00;101126.41;4185892;28;20066;-76
2023/07/31 05:20:58;;;;;;;10.55;4.00;;;18.50;99.90;;;18.02;100.00;101137.53;4168629;28;20420;-76
2023/07/31 05:22:59;;;;;;;11.20;4.65;;;18.50;99.90;;;18.01;100.00;101134.03;4152386;28;20030;-76
2023/07/31 05:25:00;;;;;;;11.10;4.40;;;18.60;99.90;;;18.08;100.00;101132.22;4183653;28;20120;-76
2023/07/31 05:27:01;;;;;;;13.80;4.28;;;18.60;99.90;;;18.10;100.00;101129.34;4184321;28;20017;-75
2023/07/31 05:29:02;;;;;;;12.77;4.30;;;18.60;99.90;;;18.11;100.00;101125.66;4166686;28;20045;-76
2023/07/31 05:31:05;;;;;;;9.63;3.90;;;18.60;99.90;;;18.16;100.00;101125.91;4166046;28;20485;-76
2023/07/31 05:33:05;;;;;;;11.50;4.60;;;18.60;99.90;;;18.20;100.00;101113.81;4185694;28;20021;-76
2023/07/31 05:35:07;;;;;;;12.13;4.80;;;18.70;99.90;;;18.21;100.00;101112.81;4186999;28;20028;-76
2023/07/31 05:37:11;;;;;;;13.60;3.50;;;18.70;99.90;;;18.25;100.00;101104.19;4165411;28;20037;-76
2023/07/31 05:39:12;;;;;;;16.30;4.30;;;18.70;99.90;;;18.28;100.00;101100.28;4186151;28;20025;-76
2023/07/31 05:41:13;;;;;;;14.23;3.78;;;18.80;99.90;;;18.29;100.00;101109.13;4183479;28;20401;-76
2023/07/31 05:43:14;;;;;;;11.63;5.20;;;18.80;99.90;;;18.31;100.00;101110.59;4167972;28;20053;-76
2023/07/31 05:45:15;;;;;;;9.32;3.83;;;18.80;99.90;;;18.34;100.00;101110.19;4183969;28;20021;-76
2023/07/31 05:47:16;;;;;;;10.13;4.55;;;18.80;99.90;;;18.40;100.00;101117.41;4186629;28;20025;-76
2023/07/31 05:49:17;;;;;;;10.68;4.05;;;18.90;99.90;;;18.43;100.00;101113.56;4180027;28;20061;-76
2023/07/31 05:51:18;;;;;;;11.30;3.88;;;18.90;99.90;;;18.47;100.00;101117.44;4166501;28;20028;-76
2023/07/31 05:53:19;;;;;;;14.60;3.45;;;18.90;99.90;;;18.51;100.00;101116.91;4166948;28;20029;-76
2023/07/31 05:55:20;;;;;;;12.00;3.75;;;19.00;99.90;;;18.53;100.00;101114.84;4183668;28;20029;-76
2023/07/31 05:57:21;;;;;;;15.55;4.55;;;19.00;99.90;;;18.56;100.00;101109.09;4183509;28;20022;-76
2023/07/31 05:59:22;;;;;;;10.93;3.78;;;19.00;99.90;;;18.57;100.00;101108.09;4167806;28;20021;-76
2023/07/31 06:01:23;;;;;;;9.63;3.92;;;19.10;99.90;;;18.70;100.00;101116.16;4186044;28;20028;-76
2023/07/31 06:03:24;;;;;;;12.23;3.53;;;19.10;99.90;;;18.69;100.00;101119.03;4168488;28;20033;-76
2023/07/31 06:05:26;;;;;;;11.38;3.70;;;19.20;99.90;;;18.72;100.00;101123.97;4183150;28;20112;-76
2023/07/31 06:07:26;;;;;;;14.95;4.53;;;19.20;99.90;;;18.70;100.00;101116.16;4183755;28;20021;-76
2023/07/31 06:09:27;;;;;;;7.30;4.38;;;19.20;99.90;;;18.67;100.00;101116.53;4166621;28;20079;-76
2023/07/31 06:11:28;;;;;;;12.30;3.95;;;19.20;99.90;;;18.61;100.00;101112.00;4166048;28;20018;-76
2023/07/31 06:13:29;;;;;;;10.63;3.50;;;19.10;99.90;;;18.63;100.00;101109.97;4167034;28;20064;-76
2023/07/31 06:15:30;;;;;;;12.30;3.58;;;19.10;99.90;;;18.64;100.00;101111.59;4185563;28;20029;-76
2023/07/31 06:17:31;;;;;;;11.95;3.97;;;19.10;99.90;;;18.71;100.00;101109.78;4186986;28;20396;-76
2023/07/31 06:19:31;;;;;;;10.32;3.15;;;19.20;99.90;;;18.81;100.00;101109.41;4182873;28;20032;-76
2023/07/31 06:21:33;;;;;;;7.80;3.03;;;19.20;99.90;;;18.97;100.00;101103.69;4181670;28;20033;-76
2023/07/31 06:23:34;;;;;;;7.43;3.28;;;19.40;99.90;;;19.22;100.00;101104.78;4167279;28;20532;-76
2023/07/31 06:25:35;;;;;;;8.27;2.92;;;19.50;99.90;;;19.31;100.00;101100.06;4185565;28;20060;-76
2023/07/31 06:27:36;;;;;;;7.93;2.60;;;19.70;99.90;;;19.29;100.00;101096.78;4168276;28;20017;-76
2023/07/31 06:29:37;;;;;;;8.45;2.97;;;19.70;99.90;;;19.27;100.00;101096.97;4183425;28;20497;-76
2023/07/31 06:31:38;;;;;;;13.27;4.07;;;19.70;99.90;;;19.33;100.00;101101.50;4182540;28;20396;-76
2023/07/31 06:33:39;;;;;;;8.60;2.75;;;19.80;99.90;;;19.35;100.00;101102.09;4166185;28;20017;-76
2023/07/31 06:35:40;;;;;;;6.45;2.80;;;19.80;99.90;;;19.47;100.00;101097.03;4184077;28;20032;-76
2023/07/31 06:37:43;;;;;;;8.50;2.80;;;19.90;99.90;;;19.55;100.00;101094.13;4183168;28;20027;-75
2023/07/31 06:39:43;;;;;;;10.50;2.65;;;20.00;99.90;;;19.61;100.00;101101.34;4185736;28;20419;-76
2023/07/31 06:41:45;;;;;;;7.65;3.10;;;20.10;99.90;;;19.64;100.00;101097.44;4186058;28;20032;-76
2023/07/31 06:43:46;;;;;;;7.93;3.13;;;20.10;99.90;;;19.64;100.00;101100.09;4186300;28;20475;-76
2023/07/31 06:45:50;;;;;;;9.20;2.80;;;20.10;99.90;;;19.54;100.00;101083.63;4179797;28;20021;-76
2023/07/31 06:47:50;;;;;;;11.38;3.20;;;20.10;99.90;;;19.64;100.00;101092.91;4180245;28;20032;-76
2023/07/31 06:49:51;;;;;;;8.13;3.55;;;20.10;99.90;;;19.67;100.00;101087.13;4166791;28;20408;-76
2023/07/31 06:51:52;;;;;;;8.95;3.72;;;20.20;99.90;;;19.79;100.00;101095.38;4184642;28;20067;-76
2023/07/31 06:53:53;;;;;;;6.72;2.97;;;20.20;99.90;;;19.97;100.00;101092.03;4184524;28;20404;-76
2023/07/31 06:55:54;;;;;;;11.65;3.78;;;20.30;99.90;;;20.30;100.00;101092.81;4164743;28;20025;-76
2023/07/31 06:57:56;;;;;;;10.35;3.80;;;20.60;99.90;;;20.48;100.00;101092.13;4182716;28;20549;-76
2023/07/31 06:59:57;;;;;;;7.70;3.22;;;20.70;99.90;;;20.66;100.00;101079.69;4165853;28;20068;-76
2023/07/31 07:01:58;;;;;;;7.32;2.85;;;20.90;99.90;;;20.77;100.00;101089.75;4182481;28;20075;-75
2023/07/31 07:03:58;;;;;;;8.00;2.83;;;21.00;99.90;;;20.61;100.00;101089.41;4185279;28;20043;-76
2023/07/31 07:05:59;;;;;;;8.70;3.00;;;21.00;99.90;;;20.43;100.00;101082.03;4186234;28;20017;-76
2023/07/31 07:08:00;;;;;;;9.45;2.83;;;21.00;99.90;;;20.28;100.00;101078.81;4160583;28;20025;-76
2023/07/31 07:10:03;;;;;;;8.07;2.50;;;20.90;99.90;;;20.18;100.00;101081.06;4180726;28;20040;-76
2023/07/31 07:12:04;;;;;;;10.43;3.08;;;20.80;99.90;;;20.21;100.00;101080.66;4165542;28;20099;-76
2023/07/31 07:14:05;;;;;;;5.97;2.45;;;20.80;99.90;;;20.25;100.00;101074.69;4184408;28;20029;-76
2023/07/31 07:16:06;;;;;;;8.80;3.22;;;20.70;99.90;;;20.16;100.00;101075.91;4184521;28;20028;-76
2023/07/31 07:18:07;;;;;;;9.40;2.70;;;20.70;99.90;;;20.05;100.00;101065.03;4166899;28;20025;-76
2023/07/31 07:20:08;;;;;;;7.85;3.65;;;20.70;99.90;;;20.14;100.00;101066.44;4182054;28;20435;-76
2023/07/31 07:22:10;;;;;;;6.30;2.55;;;20.70;99.90;;;20.12;100.00;101064.00;4164789;28;20037;-76
2023/07/31 07:24:11;;;;;;;7.72;2.30;;;20.70;99.90;;;20.15;100.00;101068.09;4165331;28;20029;-76
2023/07/31 07:26:12;;;;;;;11.13;3.00;;;20.60;99.90;;;20.05;100.00;101060.50;4164170;28;20025;-76
2023/07/31 07:28:13;;;;;;;4.18;2.53;;;20.60;99.90;;;20.16;100.00;101064.41;4180045;28;20028;-76
2023/07/31 07:30:14;;;;;;;9.05;3.25;;;20.60;99.90;;;20.27;100.00;101066.44;4151640;28;20422;-76
2023/07/31 07:32:15;;;;;;;5.15;2.33;;;20.70;99.90;;;20.28;100.00;101068.91;4185516;28;20028;-76
2023/07/31 07:34:16;;;;;;;5.30;3.10;;;20.80;99.90;;;20.20;100.00;101069.13;4180846;28;20032;-76
2023/07/31 07:36:17;;;;;;;7.50;3.08;;;20.70;99.90;;;20.13;100.00;101064.81;4182716;28;20018;-76
2023/07/31 07:38:19;;;;;;;8.35;2.33;;;20.70;99.90;;;20.12;100.00;101064.00;4181355;28;20020;-76
2023/07/31 07:40:20;;;;;;;7.07;3.17;;;20.70;99.90;;;20.17;100.00;101056.16;4183771;28;20120;-76
2023/07/31 07:42:21;;;;;;;9.07;2.58;;;20.70;99.90;;;20.03;100.00;101040.31;4183205;28;20025;-76
2023/07/31 07:44:22;;;;;;;6.97;2.58;;;20.70;99.90;;;19.73;100.00;101056.88;4185313;28;20507;-76
2023/07/31 07:46:23;;;;;;;8.98;3.83;;;20.50;99.90;;;19.55;100.00;101061.19;4164067;28;20428;-76
2023/07/31 07:48:25;;;;;;;9.30;3.75;;;20.30;99.90;;;19.50;100.00;101069.03;4182272;28;20024;-76
2023/07/31 07:50:25;;;;;;;12.60;4.38;;;20.10;99.90;;;19.50;100.00;101069.88;4181666;28;20067;-76
2023/07/31 07:52:26;;;;;;;6.00;2.90;;;20.00;99.90;;;19.55;100.00;101078.09;4165170;28;20565;-76
2023/07/31 07:54:27;;;;;;;8.10;2.63;;;20.10;99.90;;;19.58;100.00;101077.66;4167739;28;20028;-76
2023/07/31 07:56:28;;;;;;;6.22;3.10;;;20.10;99.90;;;19.53;100.00;101065.94;4167257;28;20022;-76
2023/07/31 07:58:29;;;;;;;9.18;3.08;;;20.00;99.90;;;19.34;100.00;101062.19;4180122;28;20029;-76
2023/07/31 08:00:30;;;;;;;7.63;3.15;;;19.90;99.90;;;19.24;100.00;101067.13;4161537;28;20517;-76
2023/07/31 08:02:31;;;;;;;9.45;2.90;;;19.80;99.90;;;19.19;100.00;101066.91;4161719;28;20504;-76
2023/07/31 08:04:32;;;;;;;9.75;3.45;;;19.70;99.90;;;19.22;100.00;101066.50;4184653;28;20021;-76
2023/07/31 08:06:33;;;;;;;13.32;3.97;;;19.70;99.90;;;19.13;100.00;101067.72;4183312;28;20033;-76
2023/07/31 08:08:33;;;;;;;10.35;3.30;;;19.70;99.90;;;19.02;100.00;101060.31;4184191;28;20543;-76
2023/07/31 08:10:34;;;;;;;11.05;4.63;;;19.60;99.90;;;19.00;100.00;101067.69;4185030;28;20040;-76
2023/07/31 08:12:35;;;;;;;10.18;3.00;;;19.50;99.90;;;18.95;100.00;101072.84;4177239;28;20032;-76
2023/07/31 08:14:36;;;;;;;8.55;3.70;;;19.50;99.90;;;18.91;100.00;101066.25;4167299;28;20485;-76